aviador You're here:

MMZH Decoded Metar

ZIHUATANEJO in MEXICO
Report Time2017-03-23 02:40:00
UTC Time2017-03-23 04:19:05
Flight Rules Old
Wind260° at 04 kt
W.Decomp.*RWY 26: 4.0 kt HW 0.5 kt LCW
W.Rank260° ranks 7
Current wind is below 260° avg. (7.6)
Visibility9999 m
Phenomena:N/A
Clouds:Scattered 020 Hf
Scattered 080 Hf
Expected CloudBase > 2,400 ft AGL from Temp-Dew spread
CeilingNone
Temp27°C (ISA +12)
Dew Point21°C (70% RH)
Heat Index28.9°C
QNH1013 hPa
Density Alt1,736 ft
Elevation20 ft
Report Wrong Elevation
Raw Report
MMZH 230240Z 26004KT 7SM SCT020 SCT080 27/21 A2991 RMK SLP113
52016 964 8/530 HZY=

Extra information for MMZH:More info

Metar Taf Metar & Taf Last 4 Metars F.Rules Stats Wind Profile Meteogram Temp Stats Airport Information Weather charts Add Link Nearby VenuesMetar ALERT Operation Metar Decoded Social comments